sensor_id;sensor_type;location;lat;lon;timestamp;pressure;altitude;pressure_sealevel;temperature;humidity
12360;BME280;6244;51.460;7.090;2023-04-06T00:03:48;100843.31;;;4.41;52.53
12360;BME280;6244;51.460;7.090;2023-04-06T00:08:45;100831.63;;;4.24;53.88
12360;BME280;6244;51.460;7.090;2023-04-06T00:13:41;100839.00;;;3.59;55.52
12360;BME280;6244;51.460;7.090;2023-04-06T00:18:38;100835.19;;;3.33;55.91
12360;BME280;6244;51.460;7.090;2023-04-06T00:23:36;100826.09;;;3.11;56.57
12360;BME280;6244;51.460;7.090;2023-04-06T00:28:33;100823.50;;;3.11;55.54
12360;BME280;6244;51.460;7.090;2023-04-06T00:33:29;100818.47;;;3.02;56.99
12360;BME280;6244;51.460;7.090;2023-04-06T00:38:26;100823.91;;;2.88;58.73
12360;BME280;6244;51.460;7.090;2023-04-06T00:43:24;100808.47;;;2.80;58.80
12360;BME280;6244;51.460;7.090;2023-04-06T00:48:20;100811.34;;;2.63;58.00
12360;BME280;6244;51.460;7.090;2023-04-06T00:53:17;100810.53;;;2.61;57.46
12360;BME280;6244;51.460;7.090;2023-04-06T00:58:13;100808.59;;;2.73;56.38
12360;BME280;6244;51.460;7.090;2023-04-06T01:03:11;100798.91;;;2.84;55.81
12360;BME280;6244;51.460;7.090;2023-04-06T01:08:08;100785.97;;;2.82;55.84
12360;BME280;6244;51.460;7.090;2023-04-06T01:13:04;100784.59;;;3.12;55.41
12360;BME280;6244;51.460;7.090;2023-04-06T01:18:01;100772.59;;;3.51;54.92
12360;BME280;6244;51.460;7.090;2023-04-06T01:22:58;100766.84;;;3.77;54.57
12360;BME280;6244;51.460;7.090;2023-04-06T01:27:55;100763.50;;;3.71;53.95
12360;BME280;6244;51.460;7.090;2023-04-06T01:32:51;100758.69;;;3.94;53.38
12360;BME280;6244;51.460;7.090;2023-04-06T01:37:48;100753.19;;;4.08;53.09
12360;BME280;6244;51.460;7.090;2023-04-06T01:42:46;100754.56;;;4.24;52.84
12360;BME280;6244;51.460;7.090;2023-04-06T01:47:42;100755.41;;;4.25;52.91
12360;BME280;6244;51.460;7.090;2023-04-06T01:52:39;100755.03;;;4.76;51.49
12360;BME280;6244;51.460;7.090;2023-04-06T01:57:35;100755.81;;;4.78;51.28
12360;BME280;6244;51.460;7.090;2023-04-06T02:02:33;100752.19;;;4.85;50.84
12360;BME280;6244;51.460;7.090;2023-04-06T02:07:30;100751.41;;;4.46;51.00
12360;BME280;6244;51.460;7.090;2023-04-06T02:12:26;100748.53;;;4.22;52.58
12360;BME280;6244;51.460;7.090;2023-04-06T02:17:23;100752.81;;;4.59;51.65
12360;BME280;6244;51.460;7.090;2023-04-06T02:22:20;100744.28;;;4.18;51.78
12360;BME280;6244;51.460;7.090;2023-04-06T02:27:17;100739.75;;;4.28;51.99
12360;BME280;6244;51.460;7.090;2023-04-06T02:32:13;100741.56;;;4.58;51.36
12360;BME280;6244;51.460;7.090;2023-04-06T02:37:10;100734.38;;;5.02;50.59
12360;BME280;6244;51.460;7.090;2023-04-06T02:42:08;100734.06;;;5.14;49.93
12360;BME280;6244;51.460;7.090;2023-04-06T02:47:04;100739.47;;;4.74;50.50
12360;BME280;6244;51.460;7.090;2023-04-06T02:52:01;100731.50;;;4.80;50.23
12360;BME280;6244;51.460;7.090;2023-04-06T02:56:58;100730.31;;;4.92;49.43
12360;BME280;6244;51.460;7.090;2023-04-06T03:01:56;100719.63;;;5.03;49.63
12360;BME280;6244;51.460;7.090;2023-04-06T03:06:53;100717.16;;;4.98;49.76
12360;BME280;6244;51.460;7.090;2023-04-06T03:11:50;100718.44;;;4.82;50.41
12360;BME280;6244;51.460;7.090;2023-04-06T03:16:47;100714.41;;;4.71;49.95
12360;BME280;6244;51.460;7.090;2023-04-06T03:21:45;100718.00;;;4.32;50.23
12360;BME280;6244;51.460;7.090;2023-04-06T03:26:42;100711.03;;;3.97;51.24
12360;BME280;6244;51.460;7.090;2023-04-06T03:31:38;100719.13;;;3.83;51.61
12360;BME280;6244;51.460;7.090;2023-04-06T03:36:35;100724.25;;;3.47;52.29
12360;BME280;6244;51.460;7.090;2023-04-06T03:41:33;100713.75;;;3.92;52.39
12360;BME280;6244;51.460;7.090;2023-04-06T03:46:29;100714.88;;;4.18;51.06
12360;BME280;6244;51.460;7.090;2023-04-06T03:51:26;100726.50;;;4.72;51.14
12360;BME280;6244;51.460;7.090;2023-04-06T03:56:23;100720.72;;;4.94;49.89
12360;BME280;6244;51.460;7.090;2023-04-06T04:01:21;100718.03;;;4.98;50.25
12360;BME280;6244;51.460;7.090;2023-04-06T04:06:18;100725.81;;;4.98;50.45
12360;BME280;6244;51.460;7.090;2023-04-06T04:11:14;100726.78;;;4.94;49.67
12360;BME280;6244;51.460;7.090;2023-04-06T04:16:11;100722.28;;;5.01;48.46
12360;BME280;6244;51.460;7.090;2023-04-06T04:21:09;100723.19;;;5.00;49.25
12360;BME280;6244;51.460;7.090;2023-04-06T04:26:06;100721.13;;;5.11;48.61
12360;BME280;6244;51.460;7.090;2023-04-06T04:31:02;100715.00;;;5.14;48.37
12360;BME280;6244;51.460;7.090;2023-04-06T04:35:58;100707.09;;;5.17;48.76
12360;BME280;6244;51.460;7.090;2023-04-06T04:40:56;100717.06;;;5.01;48.76
12360;BME280;6244;51.460;7.090;2023-04-06T04:45:53;100715.25;;;4.72;48.44
12360;BME280;6244;51.460;7.090;2023-04-06T04:50:49;100708.81;;;4.87;50.18
12360;BME280;6244;51.460;7.090;2023-04-06T04:55:46;100710.56;;;4.86;49.58
12360;BME280;6244;51.460;7.090;2023-04-06T05:00:44;100708.88;;;4.51;49.73
12360;BME280;6244;51.460;7.090;2023-04-06T05:05:40;100705.31;;;4.54;49.64
12360;BME280;6244;51.460;7.090;2023-04-06T05:10:37;100699.66;;;4.38;48.93
12360;BME280;6244;51.460;7.090;2023-04-06T05:15:34;100711.88;;;4.34;50.68
12360;BME280;6244;51.460;7.090;2023-04-06T05:20:35;100714.19;;;4.11;50.47
12360;BME280;6244;51.460;7.090;2023-04-06T05:25:31;100719.69;;;4.33;50.32
12360;BME280;6244;51.460;7.090;2023-04-06T05:30:28;100701.66;;;4.62;49.91
12360;BME280;6244;51.460;7.090;2023-04-06T05:35:25;100711.25;;;4.59;48.60
12360;BME280;6244;51.460;7.090;2023-04-06T05:40:23;100702.94;;;4.09;49.56
12360;BME280;6244;51.460;7.090;2023-04-06T05:45:19;100698.34;;;4.20;51.03
12360;BME280;6244;51.460;7.090;2023-04-06T05:50:16;100709.16;;;4.39;49.31
12360;BME280;6244;51.460;7.090;2023-04-06T05:55:13;100717.09;;;4.33;49.20
12360;BME280;6244;51.460;7.090;2023-04-06T06:00:12;100695.75;;;3.85;50.84
12360;BME280;6244;51.460;7.090;2023-04-06T06:05:09;100701.28;;;3.69;51.31
12360;BME280;6244;51.460;7.090;2023-04-06T06:10:07;100705.34;;;3.81;51.25
12360;BME280;6244;51.460;7.090;2023-04-06T06:15:05;100712.78;;;3.96;51.05
12360;BME280;6244;51.460;7.090;2023-04-06T06:20:04;100707.81;;;4.24;49.67
12360;BME280;6244;51.460;7.090;2023-04-06T06:25:00;100706.19;;;4.19;49.79
12360;BME280;6244;51.460;7.090;2023-04-06T06:29:57;100702.66;;;4.23;50.27
12360;BME280;6244;51.460;7.090;2023-04-06T06:34:53;100706.81;;;4.28;50.56
12360;BME280;6244;51.460;7.090;2023-04-06T06:39:51;100714.44;;;4.36;50.28
12360;BME280;6244;51.460;7.090;2023-04-06T06:44:48;100717.38;;;4.56;48.43
12360;BME280;6244;51.460;7.090;2023-04-06T06:49:44;100704.03;;;4.70;49.30
12360;BME280;6244;51.460;7.090;2023-04-06T06:54:41;100705.22;;;4.91;49.37
12360;BME280;6244;51.460;7.090;2023-04-06T06:59:40;100707.31;;;5.09;48.54
12360;BME280;6244;51.460;7.090;2023-04-06T07:04:36;100703.13;;;5.35;48.36
12360;BME280;6244;51.460;7.090;2023-04-06T07:09:33;100692.44;;;5.44;46.66
12360;BME280;6244;51.460;7.090;2023-04-06T07:14:30;100678.88;;;5.34;46.66
12360;BME280;6244;51.460;7.090;2023-04-06T07:19:28;100696.13;;;5.66;45.75
12360;BME280;6244;51.460;7.090;2023-04-06T07:24:25;100693.53;;;5.94;45.41
12360;BME280;6244;51.460;7.090;2023-04-06T07:29:21;100688.56;;;6.14;45.14
12360;BME280;6244;51.460;7.090;2023-04-06T07:34:18;100694.63;;;6.41;44.10
12360;BME280;6244;51.460;7.090;2023-04-06T07:39:16;100689.47;;;6.65;43.78
12360;BME280;6244;51.460;7.090;2023-04-06T07:44:12;100686.72;;;7.18;42.63
12360;BME280;6244;51.460;7.090;2023-04-06T07:49:09;100681.44;;;7.66;42.08
12360;BME280;6244;51.460;7.090;2023-04-06T07:54:06;100686.13;;;8.23;40.85
12360;BME280;6244;51.460;7.090;2023-04-06T07:59:03;100663.31;;;9.27;37.91
12360;BME280;6244;51.460;7.090;2023-04-06T08:04:00;100668.19;;;10.62;35.35
12360;BME280;6244;51.460;7.090;2023-04-06T08:08:57;100669.19;;;11.59;33.68
12360;BME280;6244;51.460;7.090;2023-04-06T08:13:54;100663.25;;;12.62;30.64
12360;BME280;6244;51.460;7.090;2023-04-06T08:18:53;100665.75;;;13.37;29.85
12360;BME280;6244;51.460;7.090;2023-04-06T08:23:50;100666.25;;;12.56;30.65
12360;BME280;6244;51.460;7.090;2023-04-06T08:28:46;100669.03;;;11.93;32.21
12360;BME280;6244;51.460;7.090;2023-04-06T08:33:43;100667.91;;;11.50;32.95
12360;BME280;6244;51.460;7.090;2023-04-06T08:38:41;100665.94;;;10.72;33.47
12360;BME280;6244;51.460;7.090;2023-04-06T08:43:42;100669.34;;;10.39;34.05
12360;BME280;6244;51.460;7.090;2023-04-06T08:48:41;100667.53;;;10.05;34.76
12360;BME280;6244;51.460;7.090;2023-04-06T08:53:38;100657.69;;;9.91;34.68
12360;BME280;6244;51.460;7.090;2023-04-06T08:58:38;100653.25;;;10.29;33.50
12360;BME280;6244;51.460;7.090;2023-04-06T09:03:38;100648.06;;;10.28;34.16
12360;BME280;6244;51.460;7.090;2023-04-06T09:08:35;100649.75;;;10.81;33.36
12360;BME280;6244;51.460;7.090;2023-04-06T09:13:45;100644.16;;;11.52;32.03
12360;BME280;6244;51.460;7.090;2023-04-06T09:18:42;100647.44;;;12.62;30.01
12360;BME280;6244;51.460;7.090;2023-04-06T09:23:39;100637.16;;;13.02;29.55
12360;BME280;6244;51.460;7.090;2023-04-06T09:28:43;100633.53;;;14.66;27.15
12360;BME280;6244;51.460;7.090;2023-04-06T09:33:45;100629.81;;;15.69;25.79
12360;BME280;6244;51.460;7.090;2023-04-06T09:38:52;100637.97;;;15.04;25.62
12360;BME280;6244;51.460;7.090;2023-04-06T09:43:50;100623.72;;;14.81;25.64
12360;BME280;6244;51.460;7.090;2023-04-06T09:48:49;100621.81;;;14.83;25.54
12360;BME280;6244;51.460;7.090;2023-04-06T09:53:51;100630.91;;;14.66;26.12
12360;BME280;6244;51.460;7.090;2023-04-06T09:58:48;100622.06;;;13.47;27.87
12360;BME280;6244;51.460;7.090;2023-04-06T10:03:54;100631.81;;;14.13;27.15
12360;BME280;6244;51.460;7.090;2023-04-06T10:08:54;100614.38;;;13.44;28.66
12360;BME280;6244;51.460;7.090;2023-04-06T10:13:53;100611.09;;;14.34;27.92
12360;BME280;6244;51.460;7.090;2023-04-06T10:18:56;100614.44;;;13.84;27.51
12360;BME280;6244;51.460;7.090;2023-04-06T10:23:58;100616.25;;;13.13;28.56
12360;BME280;6244;51.460;7.090;2023-04-06T10:28:55;100611.75;;;12.87;29.58
12360;BME280;6244;51.460;7.090;2023-04-06T10:33:57;100620.00;;;13.38;28.76
12360;BME280;6244;51.460;7.090;2023-04-06T10:38:55;100614.63;;;13.39;29.50
12360;BME280;6244;51.460;7.090;2023-04-06T10:43:56;100621.34;;;13.16;29.67
12360;BME280;6244;51.460;7.090;2023-04-06T10:48:53;100605.28;;;14.29;27.70
12360;BME280;6244;51.460;7.090;2023-04-06T10:53:53;100600.06;;;14.80;26.61
12360;BME280;6244;51.460;7.090;2023-04-06T10:58:52;100597.03;;;15.22;28.06
12360;BME280;6244;51.460;7.090;2023-04-06T11:03:52;100593.13;;;15.15;26.71
12360;BME280;6244;51.460;7.090;2023-04-06T11:08:51;100572.84;;;15.16;27.00
12360;BME280;6244;51.460;7.090;2023-04-06T11:13:50;100582.88;;;15.47;26.71
12360;BME280;6244;51.460;7.090;2023-04-06T11:18:49;100587.13;;;15.01;27.80
12360;BME280;6244;51.460;7.090;2023-04-06T11:23:46;100611.63;;;14.39;28.59
12360;BME280;6244;51.460;7.090;2023-04-06T11:28:44;100585.75;;;13.52;30.36
12360;BME280;6244;51.460;7.090;2023-04-06T11:33:41;100579.78;;;13.75;30.01
12360;BME280;6244;51.460;7.090;2023-04-06T11:38:38;100585.72;;;13.79;30.20
12360;BME280;6244;51.460;7.090;2023-04-06T11:43:35;100579.38;;;14.08;29.62
12360;BME280;6244;51.460;7.090;2023-04-06T11:48:43;100574.91;;;13.96;30.60
12360;BME280;6244;51.460;7.090;2023-04-06T11:53:43;100569.50;;;13.85;30.07
12360;BME280;6244;51.460;7.090;2023-04-06T11:58:40;100568.53;;;13.86;31.45
12360;BME280;6244;51.460;7.090;2023-04-06T12:03:38;100566.81;;;13.72;29.92
12360;BME280;6244;51.460;7.090;2023-04-06T12:08:35;100569.78;;;13.27;29.80
12360;BME280;6244;51.460;7.090;2023-04-06T12:13:31;100570.03;;;13.36;31.00
12360;BME280;6244;51.460;7.090;2023-04-06T12:18:28;100568.81;;;13.42;31.52
12360;BME280;6244;51.460;7.090;2023-04-06T12:23:26;100570.66;;;12.84;31.55
12360;BME280;6244;51.460;7.090;2023-04-06T12:28:23;100556.47;;;12.58;32.93
12360;BME280;6244;51.460;7.090;2023-04-06T12:33:22;100556.84;;;12.81;33.31
12360;BME280;6244;51.460;7.090;2023-04-06T12:38:18;100555.03;;;12.96;33.35
12360;BME280;6244;51.460;7.090;2023-04-06T12:43:17;100568.66;;;12.45;33.68
12360;BME280;6244;51.460;7.090;2023-04-06T12:48:13;100563.28;;;12.32;35.44
12360;BME280;6244;51.460;7.090;2023-04-06T12:53:10;100554.34;;;12.21;35.98
12360;BME280;6244;51.460;7.090;2023-04-06T12:58:06;100552.56;;;12.21;36.51
12360;BME280;6244;51.460;7.090;2023-04-06T13:03:04;100555.28;;;12.20;36.76
12360;BME280;6244;51.460;7.090;2023-04-06T13:08:01;100568.31;;;12.07;36.87
12360;BME280;6244;51.460;7.090;2023-04-06T13:12:57;100567.28;;;11.80;38.22
12360;BME280;6244;51.460;7.090;2023-04-06T13:17:55;100564.03;;;11.74;39.22
12360;BME280;6244;51.460;7.090;2023-04-06T13:22:53;100557.84;;;11.75;38.69
12360;BME280;6244;51.460;7.090;2023-04-06T13:27:49;100556.44;;;12.00;38.85
12360;BME280;6244;51.460;7.090;2023-04-06T13:32:46;100549.28;;;11.88;38.70
12360;BME280;6244;51.460;7.090;2023-04-06T13:37:43;100542.97;;;11.90;39.22
12360;BME280;6244;51.460;7.090;2023-04-06T13:42:41;100554.38;;;11.91;39.49
12360;BME280;6244;51.460;7.090;2023-04-06T13:47:40;100557.84;;;11.91;40.84
12360;BME280;6244;51.460;7.090;2023-04-06T13:52:36;100533.50;;;11.72;39.05
12360;BME280;6244;51.460;7.090;2023-04-06T13:57:33;100542.72;;;11.49;39.63
12360;BME280;6244;51.460;7.090;2023-04-06T14:02:32;100549.16;;;11.43;42.39
12360;BME280;6244;51.460;7.090;2023-04-06T14:07:29;100544.41;;;11.34;43.15
12360;BME280;6244;51.460;7.090;2023-04-06T14:12:25;100552.38;;;11.01;45.52
12360;BME280;6244;51.460;7.090;2023-04-06T14:17:23;100546.84;;;10.90;44.81
12360;BME280;6244;51.460;7.090;2023-04-06T14:22:21;100562.88;;;11.01;44.99
12360;BME280;6244;51.460;7.090;2023-04-06T14:27:17;100557.88;;;10.97;45.39
12360;BME280;6244;51.460;7.090;2023-04-06T14:32:14;100556.69;;;11.02;44.39
12360;BME280;6244;51.460;7.090;2023-04-06T14:37:11;100552.22;;;11.04;45.23
12360;BME280;6244;51.460;7.090;2023-04-06T14:42:09;100545.59;;;10.97;45.92
12360;BME280;6244;51.460;7.090;2023-04-06T14:47:05;100537.84;;;10.78;47.25
12360;BME280;6244;51.460;7.090;2023-04-06T14:52:02;100528.34;;;10.60;48.42
12360;BME280;6244;51.460;7.090;2023-04-06T14:56:58;100549.09;;;10.65;49.33
12360;BME280;6244;51.460;7.090;2023-04-06T15:01:57;100536.34;;;10.41;50.70
12360;BME280;6244;51.460;7.090;2023-04-06T15:06:55;100528.44;;;10.25;52.00
12360;BME280;6244;51.460;7.090;2023-04-06T15:11:51;100541.00;;;10.36;52.13
12360;BME280;6244;51.460;7.090;2023-04-06T15:16:48;100536.88;;;10.13;53.15
12360;BME280;6244;51.460;7.090;2023-04-06T15:21:46;100542.22;;;10.12;54.03
12360;BME280;6244;51.460;7.090;2023-04-06T15:26:42;100516.69;;;10.15;53.44
12360;BME280;6244;51.460;7.090;2023-04-06T15:31:40;100516.63;;;10.34;52.38
12360;BME280;6244;51.460;7.090;2023-04-06T15:36:37;100524.22;;;10.56;49.94
12360;BME280;6244;51.460;7.090;2023-04-06T15:41:35;100527.59;;;10.58;50.12
12360;BME280;6244;51.460;7.090;2023-04-06T15:52:33;100547.91;;;10.02;54.58
12360;BME280;6244;51.460;7.090;2023-04-06T15:57:42;100548.53;;;9.73;55.90
12360;BME280;6244;51.460;7.090;2023-04-06T16:02:48;100546.44;;;9.62;57.70
12360;BME280;6244;51.460;7.090;2023-04-06T16:07:45;100551.94;;;9.39;59.98
12360;BME280;6244;51.460;7.090;2023-04-06T16:12:45;100553.72;;;9.20;61.86
12360;BME280;6244;51.460;7.090;2023-04-06T16:17:42;100568.31;;;9.06;63.63
12360;BME280;6244;51.460;7.090;2023-04-06T16:22:39;100565.03;;;9.01;65.85
12360;BME280;6244;51.460;7.090;2023-04-06T16:27:36;100569.13;;;8.69;66.85
12360;BME280;6244;51.460;7.090;2023-04-06T16:32:34;100560.25;;;8.53;68.01
12360;BME280;6244;51.460;7.090;2023-04-06T16:37:30;100556.28;;;8.44;69.24
12360;BME280;6244;51.460;7.090;2023-04-06T16:42:27;100567.50;;;8.26;70.41
12360;BME280;6244;51.460;7.090;2023-04-06T16:47:23;100577.34;;;7.99;71.13
12360;BME280;6244;51.460;7.090;2023-04-06T16:52:21;100573.69;;;7.83;74.86
12360;BME280;6244;51.460;7.090;2023-04-06T16:57:18;100586.41;;;7.70;75.89
12360;BME280;6244;51.460;7.090;2023-04-06T17:02:14;100584.91;;;7.41;79.61
12360;BME280;6244;51.460;7.090;2023-04-06T17:07:11;100569.06;;;7.24;81.27
12360;BME280;6244;51.460;7.090;2023-04-06T17:12:09;100589.16;;;7.22;81.53
12360;BME280;6244;51.460;7.090;2023-04-06T17:17:07;100584.81;;;6.99;83.90
12360;BME280;6244;51.460;7.090;2023-04-06T17:22:04;100568.69;;;7.11;84.45
12360;BME280;6244;51.460;7.090;2023-04-06T17:27:00;100561.78;;;7.10;82.39
12360;BME280;6244;51.460;7.090;2023-04-06T17:31:59;100557.16;;;7.17;84.93
12360;BME280;6244;51.460;7.090;2023-04-06T17:36:55;100563.34;;;7.14;83.76
12360;BME280;6244;51.460;7.090;2023-04-06T17:41:52;100562.09;;;7.24;83.90
12360;BME280;6244;51.460;7.090;2023-04-06T17:46:48;100557.78;;;7.23;84.44
12360;BME280;6244;51.460;7.090;2023-04-06T17:51:47;100553.41;;;7.24;81.45
12360;BME280;6244;51.460;7.090;2023-04-06T17:56:43;100543.09;;;6.75;85.07
12360;BME280;6244;51.460;7.090;2023-04-06T18:01:43;100544.91;;;6.97;84.85
12360;BME280;6244;51.460;7.090;2023-04-06T18:06:40;100549.25;;;7.20;85.89
12360;BME280;6244;51.460;7.090;2023-04-06T18:11:38;100545.53;;;7.25;84.92
12360;BME280;6244;51.460;7.090;2023-04-06T18:16:35;100538.78;;;6.98;85.18
12360;BME280;6244;51.460;7.090;2023-04-06T18:21:32;100532.13;;;6.89;86.00
12360;BME280;6244;51.460;7.090;2023-04-06T18:26:28;100533.91;;;6.89;87.22
12360;BME280;6244;51.460;7.090;2023-04-06T18:31:26;100530.44;;;6.88;86.75
12360;BME280;6244;51.460;7.090;2023-04-06T18:36:24;100533.88;;;7.34;87.32
12360;BME280;6244;51.460;7.090;2023-04-06T18:41:21;100525.97;;;7.14;86.32
12360;BME280;6244;51.460;7.090;2023-04-06T18:46:18;100531.13;;;7.15;86.16
12360;BME280;6244;51.460;7.090;2023-04-06T18:51:17;100526.22;;;7.07;86.53
12360;BME280;6244;51.460;7.090;2023-04-06T18:56:15;100532.97;;;7.13;87.16
12360;BME280;6244;51.460;7.090;2023-04-06T19:01:19;100521.38;;;7.20;86.79
12360;BME280;6244;51.460;7.090;2023-04-06T19:06:17;100515.16;;;7.01;85.96
12360;BME280;6244;51.460;7.090;2023-04-06T19:11:14;100526.78;;;6.92;87.37
12360;BME280;6244;51.460;7.090;2023-04-06T19:16:11;100514.13;;;6.83;87.41
12360;BME280;6244;51.460;7.090;2023-04-06T19:21:13;100514.97;;;6.84;87.80
12360;BME280;6244;51.460;7.090;2023-04-06T19:26:12;100516.72;;;6.83;87.80
12360;BME280;6244;51.460;7.090;2023-04-06T19:31:10;100522.28;;;6.74;88.47
12360;BME280;6244;51.460;7.090;2023-04-06T19:36:10;100519.66;;;6.97;88.85
12360;BME280;6244;51.460;7.090;2023-04-06T19:41:07;100521.66;;;7.13;88.05
12360;BME280;6244;51.460;7.090;2023-04-06T19:46:04;100512.19;;;6.88;88.00
12360;BME280;6244;51.460;7.090;2023-04-06T19:51:03;100508.59;;;6.67;88.29
12360;BME280;6244;51.460;7.090;2023-04-06T19:55:59;100509.00;;;6.80;88.96
12360;BME280;6244;51.460;7.090;2023-04-06T20:00:56;100510.69;;;6.81;89.50
12360;BME280;6244;51.460;7.090;2023-04-06T20:05:54;100505.22;;;6.65;89.01
12360;BME280;6244;51.460;7.090;2023-04-06T20:10:50;100505.47;;;6.59;89.29
12360;BME280;6244;51.460;7.090;2023-04-06T20:15:47;100502.03;;;6.57;89.89
12360;BME280;6244;51.460;7.090;2023-04-06T20:20:44;100498.19;;;6.67;89.77
12360;BME280;6244;51.460;7.090;2023-04-06T20:25:42;100502.66;;;6.64;90.17
12360;BME280;6244;51.460;7.090;2023-04-06T20:30:39;100495.13;;;6.80;90.57
12360;BME280;6244;51.460;7.090;2023-04-06T20:35:35;100491.84;;;6.74;89.71
12360;BME280;6244;51.460;7.090;2023-04-06T20:40:32;100487.97;;;6.85;90.35
12360;BME280;6244;51.460;7.090;2023-04-06T20:45:30;100478.09;;;6.69;90.01
12360;BME280;6244;51.460;7.090;2023-04-06T20:50:26;100477.41;;;6.88;90.35
12360;BME280;6244;51.460;7.090;2023-04-06T20:55:23;100474.41;;;6.98;89.35
12360;BME280;6244;51.460;7.090;2023-04-06T21:00:20;100470.44;;;6.88;89.69
12360;BME280;6244;51.460;7.090;2023-04-06T21:05:18;100464.00;;;6.75;89.49
12360;BME280;6244;51.460;7.090;2023-04-06T21:10:15;100456.84;;;6.80;89.87
12360;BME280;6244;51.460;7.090;2023-04-06T21:15:11;100465.75;;;6.74;90.15
12360;BME280;6244;51.460;7.090;2023-04-06T21:20:09;100467.06;;;6.86;90.53
12360;BME280;6244;51.460;7.090;2023-04-06T21:25:08;100473.44;;;7.23;90.48
12360;BME280;6244;51.460;7.090;2023-04-06T21:30:05;100464.28;;;7.55;90.25
12360;BME280;6244;51.460;7.090;2023-04-06T21:35:02;100458.84;;;7.17;88.56
12360;BME280;6244;51.460;7.090;2023-04-06T21:39:59;100456.50;;;6.89;89.75
12360;BME280;6244;51.460;7.090;2023-04-06T21:44:58;100445.03;;;6.71;90.16
12360;BME280;6244;51.460;7.090;2023-04-06T21:49:54;100442.72;;;6.86;90.81
12360;BME280;6244;51.460;7.090;2023-04-06T21:54:51;100438.50;;;6.83;90.52
12360;BME280;6244;51.460;7.090;2023-04-06T21:59:47;100433.50;;;6.77;91.16
12360;BME280;6244;51.460;7.090;2023-04-06T22:04:45;100435.88;;;6.83;91.19
12360;BME280;6244;51.460;7.090;2023-04-06T22:09:42;100440.41;;;6.78;91.25
12360;BME280;6244;51.460;7.090;2023-04-06T22:14:43;100433.44;;;6.78;91.41
12360;BME280;6244;51.460;7.090;2023-04-06T22:19:40;100423.25;;;6.72;91.62
12360;BME280;6244;51.460;7.090;2023-04-06T22:24:38;100417.97;;;6.74;91.06
12360;BME280;6244;51.460;7.090;2023-04-06T22:29:34;100419.91;;;6.69;91.31
12360;BME280;6244;51.460;7.090;2023-04-06T22:34:31;100416.50;;;6.67;91.59
12360;BME280;6244;51.460;7.090;2023-04-06T22:39:27;100422.88;;;6.60;91.68
12360;BME280;6244;51.460;7.090;2023-04-06T22:44:25;100426.88;;;6.68;92.36
12360;BME280;6244;51.460;7.090;2023-04-06T22:49:22;100427.19;;;6.61;92.53
12360;BME280;6244;51.460;7.090;2023-04-06T22:54:18;100420.09;;;6.64;92.30
12360;BME280;6244;51.460;7.090;2023-04-06T22:59:15;100423.53;;;6.65;92.70
12360;BME280;6244;51.460;7.090;2023-04-06T23:04:12;100425.56;;;6.58;92.73
12360;BME280;6244;51.460;7.090;2023-04-06T23:09:09;100419.91;;;6.69;92.81
12360;BME280;6244;51.460;7.090;2023-04-06T23:14:06;100411.13;;;6.71;92.81
12360;BME280;6244;51.460;7.090;2023-04-06T23:19:03;100413.84;;;6.68;92.87
12360;BME280;6244;51.460;7.090;2023-04-06T23:24:01;100406.34;;;6.61;92.92
12360;BME280;6244;51.460;7.090;2023-04-06T23:28:57;100399.34;;;6.61;93.28
12360;BME280;6244;51.460;7.090;2023-04-06T23:33:54;100404.63;;;6.60;93.35
12360;BME280;6244;51.460;7.090;2023-04-06T23:38:50;100402.94;;;6.59;93.62
12360;BME280;6244;51.460;7.090;2023-04-06T23:43:48;100403.72;;;6.61;93.50
12360;BME280;6244;51.460;7.090;2023-04-06T23:48:45;100404.16;;;6.72;93.56
12360;BME280;6244;51.460;7.090;2023-04-06T23:53:41;100410.38;;;6.68;93.67
12360;BME280;6244;51.460;7.090;2023-04-06T23:58:38;100406.00;;;6.68;93.63
